PWSweather.com
Personal Weather Stations
Station Observations
19121909
Balcony, LuedinghausenDE

BalconyLuedinghausenDE

Lat: 51.7674749, Lon: 7.414684299999976

Elevation: 712

Station Type: FineOffset WH1080

http://www.wetter-luedinghausen.de

Latest ConditionsUpdated 9:50:00 PM GMT+01:01 Friday, May 25, 2018
Currently Today's Max Today's Min Today's Average
Temperature 65.5°F18.6°C 78.5°F25.8°C 59.3°F15.2°C 68.9°F20.5°C
Dew Point 57.0°F13.9°C 61.2°F16.2°C 54.8°F12.7°C 58.2°F14.6°C
Winds Calm Calm 5.4 mph WSW8.7 kmh WSW - 2.1 mph 3.4 kmh
Wind Gusts -- 13.1 mph21.1 kmh - -
Humidity 74% 87% 53% 70%
Pressure 30.09 in1019.0 mb 30.09 in1019.0 mb 30.04 in1017.3 mb -
Hour Temp Dew Point Humidity Winds Wind Gusts Pressure Precip Precip Rate Daily Precip Total
09:50 PM 65.5°F18.6°C 57.0°F13.9°C 74% Calm Calm -- 30.09 in1019.0 mb 0.00 in0.0 mm 0.00 in0.0 mm 0.00 in0.0 mm
09:45 PM 65.8°F18.8°C 57.0°F13.9°C 73% Calm Calm -- 30.08 in1018.6 mb 0.00 in0.0 mm 0.00 in0.0 mm 0.00 in0.0 mm
09:40 PM 66.1°F18.9°C 57.2°F14.0°C 73% Calm Calm -- 30.08 in1018.6 mb 0.00 in0.0 mm 0.00 in0.0 mm 0.00 in0.0 mm
09:35 PM 66.4°F19.1°C 57.2°F14.0°C 72% Calm Calm -- 30.08 in1018.6 mb 0.00 in0.0 mm 0.00 in0.0 mm 0.00 in0.0 mm
09:30 PM 66.6°F19.2°C 57.3°F14.1°C 72% Calm Calm -- 30.08 in1018.6 mb 0.00 in0.0 mm 0.00 in0.0 mm 0.00 in0.0 mm
09:25 PM 67.0°F19.4°C 57.5°F14.2°C 71% Calm Calm -- 30.08 in1018.6 mb 0.00 in0.0 mm 0.00 in0.0 mm 0.00 in0.0 mm
09:20 PM 67.3°F19.6°C 57.4°F14.1°C 71% Calm Calm -- 30.08 in1018.6 mb 0.00 in0.0 mm 0.00 in0.0 mm 0.00 in0.0 mm
09:15 PM 67.7°F19.8°C 57.5°F14.2°C 70% Calm Calm -- 30.08 in1018.6 mb 0.00 in0.0 mm 0.00 in0.0 mm 0.00 in0.0 mm
09:10 PM 68.1°F20.1°C 57.9°F14.4°C 70% Calm Calm -- 30.08 in1018.6 mb 0.00 in0.0 mm 0.00 in0.0 mm 0.00 in0.0 mm
09:05 PM 68.4°F20.2°C 58.0°F14.4°C 69% Calm Calm -- 30.05 in1017.6 mb 0.00 in0.0 mm 0.00 in0.0 mm 0.00 in0.0 mm
09:00 PM 68.8°F20.4°C 58.0°F14.4°C 69% Calm Calm -- 30.05 in1017.6 mb 0.00 in0.0 mm 0.00 in0.0 mm 0.00 in0.0 mm
08:55 PM 69.3°F20.7°C 58.2°F14.6°C 68% Calm Calm -- 30.05 in1017.6 mb 0.00 in0.0 mm 0.00 in0.0 mm 0.00 in0.0 mm
08:50 PM 69.7°F20.9°C 58.2°F14.6°C 67% Calm Calm -- 30.05 in1017.6 mb 0.00 in0.0 mm 0.00 in0.0 mm 0.00 in0.0 mm
08:45 PM 70.1°F21.2°C 58.2°F14.6°C 66% Calm Calm -- 30.07 in1018.3 mb 0.00 in0.0 mm 0.00 in0.0 mm 0.00 in0.0 mm
08:40 PM 70.6°F21.4°C 58.5°F14.7°C 66% Calm Calm -- 30.07 in1018.3 mb 0.00 in0.0 mm 0.00 in0.0 mm 0.00 in0.0 mm
08:35 PM 71.2°F21.8°C 58.5°F14.7°C 64% Calm Calm -- 30.07 in1018.3 mb 0.00 in0.0 mm 0.00 in0.0 mm 0.00 in0.0 mm
08:30 PM 71.6°F22.0°C 58.8°F14.9°C 64% Calm Calm -- 30.07 in1018.3 mb 0.00 in0.0 mm 0.00 in0.0 mm 0.00 in0.0 mm
08:25 PM 71.9°F22.2°C 58.8°F14.9°C 63% 0.1 mph NNE0.2 kmh NNE 0.4 mph0.6 kmh 30.06 in1017.9 mb 0.00 in0.0 mm 0.00 in0.0 mm 0.00 in0.0 mm
08:20 PM 72.3°F22.4°C 59.0°F15.0°C 63% 0.7 mph NE1.1 kmh NE 1.1 mph1.8 kmh 30.06 in1017.9 mb 0.00 in0.0 mm 0.00 in0.0 mm 0.00 in0.0 mm
08:15 PM 72.6°F22.6°C 58.8°F14.9°C 62% 1.4 mph E2.3 kmh E 1.9 mph3.1 kmh 30.06 in1017.9 mb 0.00 in0.0 mm 0.00 in0.0 mm 0.00 in0.0 mm
08:10 PM 72.8°F22.7°C 59.0°F15.0°C 62% 1.9 mph NNE3.1 kmh NNE 4.4 mph7.1 kmh 30.06 in1017.9 mb 0.00 in0.0 mm 0.00 in0.0 mm 0.00 in0.0 mm
08:05 PM 73.0°F22.8°C 58.7°F14.8°C 61% 2.3 mph NNE3.7 kmh NNE 2.4 mph3.9 kmh 30.06 in1017.9 mb 0.00 in0.0 mm 0.00 in0.0 mm 0.00 in0.0 mm
08:00 PM 73.1°F22.8°C 58.9°F14.9°C 61% 2.5 mph NE4.0 kmh NE 5.6 mph9.0 kmh 30.06 in1017.9 mb 0.00 in0.0 mm 0.00 in0.0 mm 0.00 in0.0 mm
07:55 PM 73.3°F22.9°C 59.0°F15.0°C 61% 2.6 mph NE4.2 kmh NE 3.7 mph6.0 kmh 30.06 in1017.9 mb 0.00 in0.0 mm 0.00 in0.0 mm 0.00 in0.0 mm
07:50 PM 73.5°F23.1°C 58.8°F14.9°C 60% 2.4 mph NE3.9 kmh NE 4.9 mph7.9 kmh 30.06 in1017.9 mb 0.00 in0.0 mm 0.00 in0.0 mm 0.00 in0.0 mm
07:45 PM 73.6°F23.1°C 58.8°F14.9°C 60% 2.2 mph NNE3.5 kmh NNE 3.3 mph5.3 kmh 30.07 in1018.3 mb 0.00 in0.0 mm 0.00 in0.0 mm 0.00 in0.0 mm
07:40 PM 73.7°F23.2°C 58.6°F14.8°C 59% 2.6 mph NE4.2 kmh NE 4.5 mph7.2 kmh 30.07 in1018.3 mb 0.00 in0.0 mm 0.00 in0.0 mm 0.00 in0.0 mm
07:35 PM 74.0°F23.3°C 58.8°F14.9°C 59% 2.7 mph E4.3 kmh E 4.0 mph6.4 kmh 30.07 in1018.3 mb 0.00 in0.0 mm 0.00 in0.0 mm 0.00 in0.0 mm
07:30 PM 74.4°F23.6°C 58.9°F14.9°C 59% 2.7 mph NNE4.3 kmh NNE 4.7 mph7.6 kmh 30.07 in1018.3 mb 0.00 in0.0 mm 0.00 in0.0 mm 0.00 in0.0 mm
07:25 PM 74.5°F23.6°C 58.7°F14.8°C 58% 3.0 mph E4.8 kmh E 5.6 mph9.0 kmh 30.06 in1017.9 mb 0.00 in0.0 mm 0.00 in0.0 mm 0.00 in0.0 mm
07:20 PM 74.6°F23.7°C 58.9°F14.9°C 58% 3.0 mph NE4.8 kmh NE 4.0 mph6.4 kmh 30.06 in1017.9 mb 0.00 in0.0 mm 0.00 in0.0 mm 0.00 in0.0 mm
07:15 PM 74.9°F23.8°C 58.9°F14.9°C 57% 2.9 mph NE4.7 kmh NE 8.2 mph13.2 kmh 30.06 in1017.9 mb 0.00 in0.0 mm 0.00 in0.0 mm 0.00 in0.0 mm
07:10 PM 75.1°F23.9°C 58.8°F14.9°C 57% 3.2 mph NE5.1 kmh NE 8.2 mph13.2 kmh 30.06 in1017.9 mb 0.00 in0.0 mm 0.00 in0.0 mm 0.00 in0.0 mm
07:05 PM 75.4°F24.1°C 59.1°F15.1°C 57% 3.5 mph NE5.6 kmh NE 6.3 mph10.1 kmh 30.06 in1017.9 mb 0.00 in0.0 mm 0.00 in0.0 mm 0.00 in0.0 mm
07:00 PM 75.6°F24.2°C 59.3°F15.2°C 57% 3.5 mph NE5.6 kmh NE 8.6 mph13.8 kmh 30.06 in1017.9 mb 0.00 in0.0 mm 0.00 in0.0 mm 0.00 in0.0 mm
06:55 PM 75.7°F24.3°C 59.3°F15.2°C 57% 4.2 mph N6.8 kmh N 6.6 mph10.6 kmh 30.06 in1017.9 mb 0.00 in0.0 mm 0.00 in0.0 mm 0.00 in0.0 mm
06:50 PM 75.9°F24.4°C 59.1°F15.1°C 56% 4.7 mph ENE7.6 kmh ENE 5.3 mph8.5 kmh 30.06 in1017.9 mb 0.00 in0.0 mm 0.00 in0.0 mm 0.00 in0.0 mm
06:45 PM 76.1°F24.5°C 59.3°F15.2°C 56% 3.8 mph E6.1 kmh E 8.0 mph12.9 kmh 30.06 in1017.9 mb 0.00 in0.0 mm 0.00 in0.0 mm 0.00 in0.0 mm
06:40 PM 76.2°F24.6°C 59.5°F15.3°C 56% 3.6 mph SSW5.8 kmh SSW 6.5 mph10.5 kmh 30.06 in1017.9 mb 0.00 in0.0 mm 0.00 in0.0 mm 0.00 in0.0 mm
06:35 PM 76.2°F24.6°C 59.4°F15.2°C 56% 4.3 mph NE6.9 kmh NE 6.3 mph10.1 kmh 30.06 in1017.9 mb 0.00 in0.0 mm 0.00 in0.0 mm 0.00 in0.0 mm
06:30 PM 76.3°F24.6°C 59.5°F15.3°C 56% 4.1 mph ENE6.6 kmh ENE 6.3 mph10.1 kmh 30.06 in1017.9 mb 0.00 in0.0 mm 0.00 in0.0 mm 0.00 in0.0 mm
06:25 PM 76.5°F24.7°C 59.5°F15.3°C 56% 3.5 mph E5.6 kmh E 9.5 mph15.3 kmh 30.06 in1017.9 mb 0.00 in0.0 mm 0.00 in0.0 mm 0.00 in0.0 mm
06:20 PM 76.7°F24.8°C 59.4°F15.2°C 55% 3.6 mph ENE5.8 kmh ENE 3.9 mph6.3 kmh 30.06 in1017.9 mb 0.00 in0.0 mm 0.00 in0.0 mm 0.00 in0.0 mm
06:15 PM 76.8°F24.9°C 59.4°F15.2°C 55% 4.4 mph E7.1 kmh E 5.8 mph9.3 kmh 30.06 in1017.9 mb 0.00 in0.0 mm 0.00 in0.0 mm 0.00 in0.0 mm
06:10 PM 77.0°F25.0°C 59.4°F15.2°C 55% 4.1 mph E6.6 kmh E 5.3 mph8.5 kmh 30.06 in1017.9 mb 0.00 in0.0 mm 0.00 in0.0 mm 0.00 in0.0 mm
06:05 PM 77.2°F25.1°C 59.2°F15.1°C 54% 3.8 mph E6.1 kmh E 7.4 mph11.9 kmh 30.07 in1018.3 mb 0.00 in0.0 mm 0.00 in0.0 mm 0.00 in0.0 mm
06:00 PM 77.4°F25.2°C 59.5°F15.3°C 54% 4.3 mph NNE6.9 kmh NNE 4.5 mph7.2 kmh 30.07 in1018.3 mb 0.00 in0.0 mm 0.00 in0.0 mm 0.00 in0.0 mm
05:55 PM 77.9°F25.5°C 59.4°F15.2°C 53% 4.6 mph NNE7.4 kmh NNE 8.6 mph13.8 kmh 30.07 in1018.3 mb 0.00 in0.0 mm 0.00 in0.0 mm 0.00 in0.0 mm
05:50 PM 78.2°F25.7°C 59.7°F15.4°C 53% 4.7 mph N7.6 kmh N 5.6 mph9.0 kmh 30.07 in1018.3 mb 0.00 in0.0 mm 0.00 in0.0 mm 0.00 in0.0 mm
05:45 PM 78.3°F25.7°C 59.7°F15.4°C 53% 4.1 mph N6.6 kmh N 7.4 mph11.9 kmh 30.07 in1018.3 mb 0.00 in0.0 mm 0.00 in0.0 mm 0.00 in0.0 mm
05:40 PM 78.4°F25.8°C 59.6°F15.3°C 53% 3.5 mph ESE5.6 kmh ESE 6.0 mph9.7 kmh 30.07 in1018.3 mb 0.00 in0.0 mm 0.00 in0.0 mm 0.00 in0.0 mm
05:35 PM 78.3°F25.7°C 59.9°F15.5°C 53% 2.9 mph NNW4.7 kmh NNW 5.3 mph8.5 kmh 30.07 in1018.3 mb 0.00 in0.0 mm 0.00 in0.0 mm 0.00 in0.0 mm
05:30 PM 78.1°F25.6°C 59.9°F15.5°C 54% 2.6 mph N4.2 kmh N 5.3 mph8.5 kmh 30.07 in1018.3 mb 0.00 in0.0 mm 0.00 in0.0 mm 0.00 in0.0 mm
05:25 PM 78.0°F25.6°C 59.5°F15.3°C 53% 3.4 mph E5.5 kmh E 5.4 mph8.7 kmh 30.06 in1017.9 mb 0.00 in0.0 mm 0.00 in0.0 mm 0.00 in0.0 mm
05:20 PM 77.9°F25.5°C 59.4°F15.2°C 53% 3.9 mph ENE6.3 kmh ENE 5.3 mph8.5 kmh 30.06 in1017.9 mb 0.00 in0.0 mm 0.00 in0.0 mm 0.00 in0.0 mm
05:15 PM 77.9°F25.5°C 59.4°F15.2°C 53% 3.5 mph NE5.6 kmh NE 7.5 mph12.1 kmh 30.06 in1017.9 mb 0.00 in0.0 mm 0.00 in0.0 mm 0.00 in0.0 mm
05:10 PM 77.8°F25.4°C 59.3°F15.2°C 53% 2.7 mph NE4.3 kmh NE 6.0 mph9.7 kmh 30.06 in1017.9 mb 0.00 in0.0 mm 0.00 in0.0 mm 0.00 in0.0 mm
05:05 PM 77.9°F25.5°C 59.6°F15.3°C 54% 2.8 mph E4.5 kmh E 4.9 mph7.9 kmh 30.07 in1018.3 mb 0.00 in0.0 mm 0.00 in0.0 mm 0.00 in0.0 mm
05:00 PM 78.2°F25.7°C 59.8°F15.4°C 53% 3.1 mph E5.0 kmh E 4.4 mph7.1 kmh 30.07 in1018.3 mb 0.00 in0.0 mm 0.00 in0.0 mm 0.00 in0.0 mm
04:55 PM 78.5°F25.8°C 59.9°F15.5°C 53% 3.6 mph WSW5.8 kmh WSW 5.4 mph8.7 kmh 30.07 in1018.3 mb 0.00 in0.0 mm 0.00 in0.0 mm 0.00 in0.0 mm
04:50 PM 78.4°F25.8°C 59.8°F15.4°C 53% 4.0 mph E6.4 kmh E 4.9 mph7.9 kmh 30.07 in1018.3 mb 0.00 in0.0 mm 0.00 in0.0 mm 0.00 in0.0 mm
04:45 PM 78.1°F25.6°C 59.6°F15.3°C 53% 4.3 mph NE6.9 kmh NE 7.4 mph11.9 kmh 30.07 in1018.3 mb 0.00 in0.0 mm 0.00 in0.0 mm 0.00 in0.0 mm
04:40 PM 77.8°F25.4°C 59.6°F15.3°C 54% 4.8 mph NE7.7 kmh NE 7.0 mph11.3 kmh 30.07 in1018.3 mb 0.00 in0.0 mm 0.00 in0.0 mm 0.00 in0.0 mm
04:35 PM 77.5°F25.3°C 59.5°F15.3°C 54% 5.3 mph ENE8.5 kmh ENE 7.4 mph11.9 kmh 30.07 in1018.3 mb 0.00 in0.0 mm 0.00 in0.0 mm 0.00 in0.0 mm
04:30 PM 77.3°F25.2°C 59.3°F15.2°C 54% 5.4 mph WSW8.7 kmh WSW 7.7 mph12.4 kmh 30.07 in1018.3 mb 0.00 in0.0 mm 0.00 in0.0 mm 0.00 in0.0 mm
04:25 PM 77.2°F25.1°C 59.3°F15.2°C 54% 5.1 mph NNE8.2 kmh NNE 7.7 mph12.4 kmh 30.07 in1018.3 mb 0.00 in0.0 mm 0.00 in0.0 mm 0.00 in0.0 mm
04:20 PM 77.2°F25.1°C 59.2°F15.1°C 54% 5.3 mph E8.5 kmh E 8.0 mph12.9 kmh 30.07 in1018.3 mb 0.00 in0.0 mm 0.00 in0.0 mm 0.00 in0.0 mm
04:15 PM 77.0°F25.0°C 59.3°F15.2°C 54% 5.3 mph NNE8.5 kmh NNE 5.8 mph9.3 kmh 30.07 in1018.3 mb 0.00 in0.0 mm 0.00 in0.0 mm 0.00 in0.0 mm
04:10 PM 76.8°F24.9°C 60.1°F15.6°C 56% 4.8 mph NNE7.7 kmh NNE 10.2 mph16.4 kmh 30.07 in1018.3 mb 0.00 in0.0 mm 0.00 in0.0 mm 0.00 in0.0 mm
04:05 PM 76.3°F24.6°C 60.2°F15.7°C 58% 4.3 mph N6.9 kmh N 10.2 mph16.4 kmh 30.07 in1018.3 mb 0.00 in0.0 mm 0.00 in0.0 mm 0.00 in0.0 mm
04:00 PM 75.9°F24.4°C 60.0°F15.6°C 58% 4.5 mph NE7.2 kmh NE 6.5 mph10.5 kmh 30.07 in1018.3 mb 0.00 in0.0 mm 0.00 in0.0 mm 0.00 in0.0 mm
03:55 PM 75.6°F24.2°C 59.7°F15.4°C 58% 5.2 mph NNE8.4 kmh NNE 6.6 mph10.6 kmh 30.07 in1018.3 mb 0.00 in0.0 mm 0.00 in0.0 mm 0.00 in0.0 mm
03:50 PM 75.7°F24.3°C 59.4°F15.2°C 57% 5.2 mph NNE8.4 kmh NNE 7.7 mph12.4 kmh 30.07 in1018.3 mb 0.00 in0.0 mm 0.00 in0.0 mm 0.00 in0.0 mm
03:45 PM 75.8°F24.3°C 59.9°F15.5°C 58% 5.0 mph N8.0 kmh N 7.7 mph12.4 kmh 30.07 in1018.3 mb 0.00 in0.0 mm 0.00 in0.0 mm 0.00 in0.0 mm
03:40 PM 75.6°F24.2°C 60.0°F15.6°C 58% 4.5 mph NE7.2 kmh NE 7.7 mph12.4 kmh 30.07 in1018.3 mb 0.00 in0.0 mm 0.00 in0.0 mm 0.00 in0.0 mm
03:35 PM 75.6°F24.2°C 60.0°F15.6°C 58% 4.5 mph NE7.2 kmh NE 12.6 mph20.3 kmh 30.07 in1018.3 mb 0.00 in0.0 mm 0.00 in0.0 mm 0.00 in0.0 mm
03:30 PM 75.6°F24.2°C 59.8°F15.4°C 58% 5.1 mph ENE8.2 kmh ENE 5.3 mph8.5 kmh 30.07 in1018.3 mb 0.00 in0.0 mm 0.00 in0.0 mm 0.00 in0.0 mm
03:25 PM 75.6°F24.2°C 59.8°F15.4°C 58% 5.2 mph NE8.4 kmh NE 8.6 mph13.8 kmh 30.07 in1018.3 mb 0.00 in0.0 mm 0.00 in0.0 mm 0.00 in0.0 mm
03:20 PM 75.6°F24.2°C 59.8°F15.4°C 58% 5.0 mph NE8.0 kmh NE 8.6 mph13.8 kmh 30.07 in1018.3 mb 0.00 in0.0 mm 0.00 in0.0 mm 0.00 in0.0 mm
03:15 PM 75.6°F24.2°C 59.5°F15.3°C 57% 4.9 mph NE7.9 kmh NE 9.5 mph15.3 kmh 30.07 in1018.3 mb 0.00 in0.0 mm 0.00 in0.0 mm 0.00 in0.0 mm
03:10 PM 75.8°F24.3°C 59.6°F15.3°C 57% 4.4 mph NNE7.1 kmh NNE 9.5 mph15.3 kmh 30.07 in1018.3 mb 0.00 in0.0 mm 0.00 in0.0 mm 0.00 in0.0 mm
03:05 PM 75.8°F24.3°C 60.0°F15.6°C 58% 4.1 mph ENE6.6 kmh ENE 7.9 mph12.7 kmh 30.06 in1017.9 mb 0.00 in0.0 mm 0.00 in0.0 mm 0.00 in0.0 mm
03:00 PM 75.8°F24.3°C 59.6°F15.3°C 57% 3.7 mph ENE6.0 kmh ENE 7.9 mph12.7 kmh 30.06 in1017.9 mb 0.00 in0.0 mm 0.00 in0.0 mm 0.00 in0.0 mm
02:55 PM 75.7°F24.3°C 59.5°F15.3°C 57% 3.5 mph E5.6 kmh E 4.5 mph7.2 kmh 30.06 in1017.9 mb 0.00 in0.0 mm 0.00 in0.0 mm 0.00 in0.0 mm
02:50 PM 75.7°F24.3°C 59.5°F15.3°C 57% 3.8 mph E6.1 kmh E 5.3 mph8.5 kmh 30.06 in1017.9 mb 0.00 in0.0 mm 0.00 in0.0 mm 0.00 in0.0 mm
02:45 PM 75.8°F24.3°C 59.5°F15.3°C 57% 4.2 mph NE6.8 kmh NE 6.8 mph10.9 kmh 30.07 in1018.3 mb 0.00 in0.0 mm 0.00 in0.0 mm 0.00 in0.0 mm
02:40 PM 75.8°F24.3°C 59.5°F15.3°C 57% 3.7 mph NE6.0 kmh NE 8.9 mph14.3 kmh 30.07 in1018.3 mb 0.00 in0.0 mm 0.00 in0.0 mm 0.00 in0.0 mm
02:35 PM 75.9°F24.4°C 59.5°F15.3°C 57% 3.4 mph ENE5.5 kmh ENE 5.3 mph8.5 kmh 30.07 in1018.3 mb 0.00 in0.0 mm 0.00 in0.0 mm 0.00 in0.0 mm
02:30 PM 75.8°F24.3°C 59.5°F15.3°C 57% 4.6 mph NE7.4 kmh NE 4.7 mph7.6 kmh 30.07 in1018.3 mb 0.00 in0.0 mm 0.00 in0.0 mm 0.00 in0.0 mm
02:25 PM 75.7°F24.3°C 59.4°F15.2°C 57% 4.6 mph NE7.4 kmh NE 13.1 mph21.1 kmh 30.07 in1018.3 mb 0.00 in0.0 mm 0.00 in0.0 mm 0.00 in0.0 mm
02:20 PM 75.6°F24.2°C 59.4°F15.2°C 57% 3.9 mph NE6.3 kmh NE 8.9 mph14.3 kmh 30.07 in1018.3 mb 0.00 in0.0 mm 0.00 in0.0 mm 0.00 in0.0 mm
02:15 PM 75.3°F24.1°C 59.2°F15.1°C 57% 4.3 mph E6.9 kmh E 5.3 mph8.5 kmh 30.07 in1018.3 mb 0.00 in0.0 mm 0.00 in0.0 mm 0.00 in0.0 mm
02:10 PM 75.3°F24.1°C 59.2°F15.1°C 57% 4.2 mph ENE6.8 kmh ENE 6.6 mph10.6 kmh 30.07 in1018.3 mb 0.00 in0.0 mm 0.00 in0.0 mm 0.00 in0.0 mm
02:05 PM 75.1°F23.9°C 60.1°F15.6°C 60% 3.3 mph NE5.3 kmh NE 8.8 mph14.2 kmh 30.06 in1017.9 mb 0.00 in0.0 mm 0.00 in0.0 mm 0.00 in0.0 mm
02:00 PM 74.9°F23.8°C 60.0°F15.6°C 60% 3.4 mph NNE5.5 kmh NNE 4.9 mph7.9 kmh 30.06 in1017.9 mb 0.00 in0.0 mm 0.00 in0.0 mm 0.00 in0.0 mm
01:55 PM 74.6°F23.7°C 59.3°F15.2°C 59% 4.3 mph NE6.9 kmh NE 4.9 mph7.9 kmh 30.06 in1017.9 mb 0.00 in0.0 mm 0.00 in0.0 mm 0.00 in0.0 mm
01:50 PM 74.8°F23.8°C 59.5°F15.3°C 59% 5.0 mph SE8.0 kmh SE 7.0 mph11.3 kmh 30.06 in1017.9 mb 0.00 in0.0 mm 0.00 in0.0 mm 0.00 in0.0 mm
01:45 PM 74.9°F23.8°C 59.4°F15.2°C 59% 4.8 mph E7.7 kmh E 7.2 mph11.6 kmh 30.06 in1017.9 mb 0.00 in0.0 mm 0.00 in0.0 mm 0.00 in0.0 mm
01:40 PM 74.8°F23.8°C 59.5°F15.3°C 59% 4.3 mph E6.9 kmh E 7.5 mph12.1 kmh 30.06 in1017.9 mb 0.00 in0.0 mm 0.00 in0.0 mm 0.00 in0.0 mm
01:35 PM 74.6°F23.7°C 59.3°F15.2°C 59% 4.0 mph NE6.4 kmh NE 6.1 mph9.8 kmh 30.06 in1017.9 mb 0.00 in0.0 mm 0.00 in0.0 mm 0.00 in0.0 mm
01:30 PM 74.7°F23.7°C 59.0°F15.0°C 58% 3.8 mph NE6.1 kmh NE 9.1 mph14.6 kmh 30.06 in1017.9 mb 0.00 in0.0 mm 0.00 in0.0 mm 0.00 in0.0 mm
01:25 PM 74.9°F23.8°C 59.1°F15.1°C 58% 2.7 mph NE4.3 kmh NE 10.3 mph16.6 kmh 30.06 in1017.9 mb 0.00 in0.0 mm 0.00 in0.0 mm 0.00 in0.0 mm
01:20 PM 74.9°F23.8°C 59.1°F15.1°C 58% 1.8 mph NE2.9 kmh NE 6.5 mph10.5 kmh 30.06 in1017.9 mb 0.00 in0.0 mm 0.00 in0.0 mm 0.00 in0.0 mm
01:15 PM 75.0°F23.9°C 59.2°F15.1°C 58% 2.6 mph E4.2 kmh E 4.0 mph6.4 kmh 30.06 in1017.9 mb 0.00 in0.0 mm 0.00 in0.0 mm 0.00 in0.0 mm
01:10 PM 75.0°F23.9°C 59.2°F15.1°C 58% 3.2 mph N5.1 kmh N 3.3 mph5.3 kmh 30.06 in1017.9 mb 0.00 in0.0 mm 0.00 in0.0 mm 0.00 in0.0 mm
01:05 PM 75.3°F24.1°C 59.0°F15.0°C 57% 2.7 mph NE4.3 kmh NE 5.6 mph9.0 kmh 30.07 in1018.3 mb 0.00 in0.0 mm 0.00 in0.0 mm 0.00 in0.0 mm
01:00 PM 75.6°F24.2°C 59.3°F15.2°C 57% 2.8 mph NE4.5 kmh NE 6.6 mph10.6 kmh 30.07 in1018.3 mb 0.00 in0.0 mm 0.00 in0.0 mm 0.00 in0.0 mm
12:55 PM 75.9°F24.4°C 59.1°F15.1°C 56% 2.2 mph ENE3.5 kmh ENE 5.4 mph8.7 kmh 30.07 in1018.3 mb 0.00 in0.0 mm 0.00 in0.0 mm 0.00 in0.0 mm
12:50 PM 76.5°F24.7°C 59.6°F15.3°C 56% 1.6 mph N2.6 kmh N 5.8 mph9.3 kmh 30.07 in1018.3 mb 0.00 in0.0 mm 0.00 in0.0 mm 0.00 in0.0 mm
12:45 PM 76.7°F24.8°C 59.9°F15.5°C 56% 2.4 mph WSW3.9 kmh WSW 5.1 mph8.2 kmh 30.07 in1018.3 mb 0.00 in0.0 mm 0.00 in0.0 mm 0.00 in0.0 mm
12:40 PM 76.6°F24.8°C 60.0°F15.6°C 57% 3.2 mph NE5.1 kmh NE 6.6 mph10.6 kmh 30.07 in1018.3 mb 0.00 in0.0 mm 0.00 in0.0 mm 0.00 in0.0 mm
12:35 PM 76.2°F24.6°C 59.5°F15.3°C 56% 3.4 mph NE5.5 kmh NE 8.8 mph14.2 kmh 30.07 in1018.3 mb 0.00 in0.0 mm 0.00 in0.0 mm 0.00 in0.0 mm
12:30 PM 76.4°F24.7°C 59.5°F15.3°C 56% 3.3 mph S5.3 kmh S 8.8 mph14.2 kmh 30.07 in1018.3 mb 0.00 in0.0 mm 0.00 in0.0 mm 0.00 in0.0 mm
12:25 PM 76.6°F24.8°C 59.4°F15.2°C 55% 3.3 mph NE5.3 kmh NE 3.9 mph6.3 kmh 30.08 in1018.6 mb 0.00 in0.0 mm 0.00 in0.0 mm 0.00 in0.0 mm
12:20 PM 76.9°F24.9°C 59.5°F15.3°C 55% 3.2 mph ESE5.1 kmh ESE 5.4 mph8.7 kmh 30.08 in1018.6 mb 0.00 in0.0 mm 0.00 in0.0 mm 0.00 in0.0 mm
12:15 PM 77.1°F25.1°C 59.8°F15.4°C 55% 3.3 mph NW5.3 kmh NW 6.5 mph10.5 kmh 30.08 in1018.6 mb 0.00 in0.0 mm 0.00 in0.0 mm 0.00 in0.0 mm
12:10 PM 77.4°F25.2°C 60.5°F15.8°C 56% 3.7 mph ESE6.0 kmh ESE 5.4 mph8.7 kmh 30.08 in1018.6 mb 0.00 in0.0 mm 0.00 in0.0 mm 0.00 in0.0 mm
12:05 PM 77.4°F25.2°C 60.4°F15.8°C 56% 3.1 mph SE5.0 kmh SE 5.4 mph8.7 kmh 30.07 in1018.3 mb 0.00 in0.0 mm 0.00 in0.0 mm 0.00 in0.0 mm
12:00 PM 77.3°F25.2°C 60.2°F15.7°C 56% 3.6 mph ENE5.8 kmh ENE 3.9 mph6.3 kmh 30.07 in1018.3 mb 0.00 in0.0 mm 0.00 in0.0 mm 0.00 in0.0 mm
11:55 AM 77.7°F25.4°C 60.5°F15.8°C 56% 5.0 mph NW8.0 kmh NW 8.8 mph14.2 kmh 30.07 in1018.3 mb 0.00 in0.0 mm 0.00 in0.0 mm 0.00 in0.0 mm
11:50 AM 77.4°F25.2°C 61.0°F16.1°C 57% 4.0 mph NE6.4 kmh NE 8.8 mph14.2 kmh 30.07 in1018.3 mb 0.00 in0.0 mm 0.00 in0.0 mm 0.00 in0.0 mm
11:45 AM 76.8°F24.9°C 61.0°F16.1°C 58% 3.7 mph E6.0 kmh E 6.1 mph9.8 kmh 30.08 in1018.6 mb 0.00 in0.0 mm 0.00 in0.0 mm 0.00 in0.0 mm
11:40 AM 76.4°F24.7°C 60.8°F16.0°C 59% 4.1 mph SE6.6 kmh SE 4.4 mph7.1 kmh 30.08 in1018.6 mb 0.00 in0.0 mm 0.00 in0.0 mm 0.00 in0.0 mm
11:35 AM 75.7°F24.3°C 61.1°F16.2°C 61% 3.9 mph ENE6.3 kmh ENE 7.5 mph12.1 kmh 30.08 in1018.6 mb 0.00 in0.0 mm 0.00 in0.0 mm 0.00 in0.0 mm
11:30 AM 74.9°F23.8°C 60.6°F15.9°C 61% 3.3 mph SE5.3 kmh SE 6.0 mph9.7 kmh 30.08 in1018.6 mb 0.00 in0.0 mm 0.00 in0.0 mm 0.00 in0.0 mm
11:25 AM 74.7°F23.7°C 60.0°F15.6°C 60% 2.4 mph NE3.9 kmh NE 10.0 mph16.1 kmh 30.07 in1018.3 mb 0.00 in0.0 mm 0.00 in0.0 mm 0.00 in0.0 mm
11:20 AM 75.0°F23.9°C 60.5°F15.8°C 61% 2.7 mph N4.3 kmh N 6.3 mph10.1 kmh 30.07 in1018.3 mb 0.00 in0.0 mm 0.00 in0.0 mm 0.00 in0.0 mm
11:15 AM 74.8°F23.8°C 60.5°F15.8°C 61% 3.4 mph ENE5.5 kmh ENE 3.9 mph6.3 kmh 30.07 in1018.3 mb 0.00 in0.0 mm 0.00 in0.0 mm 0.00 in0.0 mm
11:10 AM 74.6°F23.7°C 60.4°F15.8°C 61% 3.6 mph NE5.8 kmh NE 7.0 mph11.3 kmh 30.07 in1018.3 mb 0.00 in0.0 mm 0.00 in0.0 mm 0.00 in0.0 mm
11:05 AM 74.6°F23.7°C 61.1°F16.2°C 63% 2.6 mph NE4.2 kmh NE 6.5 mph10.5 kmh 30.08 in1018.6 mb 0.00 in0.0 mm 0.00 in0.0 mm 0.00 in0.0 mm
11:00 AM 74.3°F23.5°C 61.2°F16.2°C 64% 2.5 mph NE4.0 kmh NE 4.5 mph7.2 kmh 30.08 in1018.6 mb 0.00 in0.0 mm 0.00 in0.0 mm 0.00 in0.0 mm
10:55 AM 74.0°F23.3°C 60.9°F16.1°C 64% 3.3 mph N5.3 kmh N 4.5 mph7.2 kmh 30.08 in1018.6 mb 0.00 in0.0 mm 0.00 in0.0 mm 0.00 in0.0 mm
10:50 AM 73.9°F23.3°C 60.5°F15.8°C 63% 3.5 mph E5.6 kmh E 4.5 mph7.2 kmh 30.08 in1018.6 mb 0.00 in0.0 mm 0.00 in0.0 mm 0.00 in0.0 mm
10:45 AM 73.9°F23.3°C 60.5°F15.8°C 63% 3.5 mph NE5.6 kmh NE 5.8 mph9.3 kmh 30.08 in1018.6 mb 0.00 in0.0 mm 0.00 in0.0 mm 0.00 in0.0 mm
10:40 AM 73.9°F23.3°C 60.6°F15.9°C 63% 3.7 mph E6.0 kmh E 4.4 mph7.1 kmh 30.08 in1018.6 mb 0.00 in0.0 mm 0.00 in0.0 mm 0.00 in0.0 mm
10:35 AM 73.6°F23.1°C 61.0°F16.1°C 65% 3.8 mph NE6.1 kmh NE 6.6 mph10.6 kmh 30.08 in1018.6 mb 0.00 in0.0 mm 0.00 in0.0 mm 0.00 in0.0 mm
10:30 AM 73.1°F22.8°C 61.1°F16.2°C 66% 3.7 mph ENE6.0 kmh ENE 6.1 mph9.8 kmh 30.08 in1018.6 mb 0.00 in0.0 mm 0.00 in0.0 mm 0.00 in0.0 mm
10:25 AM 72.6°F22.6°C 60.6°F15.9°C 66% 3.3 mph N5.3 kmh N 5.6 mph9.0 kmh 30.07 in1018.3 mb 0.00 in0.0 mm 0.00 in0.0 mm 0.00 in0.0 mm
10:20 AM 72.3°F22.4°C 60.6°F15.9°C 67% 2.9 mph NE4.7 kmh NE 5.8 mph9.3 kmh 30.07 in1018.3 mb 0.00 in0.0 mm 0.00 in0.0 mm 0.00 in0.0 mm
10:15 AM 71.9°F22.2°C 60.2°F15.7°C 67% 2.3 mph NE3.7 kmh NE 3.5 mph5.6 kmh 30.07 in1018.3 mb 0.00 in0.0 mm 0.00 in0.0 mm 0.00 in0.0 mm
10:10 AM 72.0°F22.2°C 60.0°F15.6°C 66% 2.1 mph NW3.4 kmh NW 3.2 mph5.1 kmh 30.07 in1018.3 mb 0.00 in0.0 mm 0.00 in0.0 mm 0.00 in0.0 mm
10:05 AM 72.3°F22.4°C 60.3°F15.7°C 66% 1.8 mph NNW2.9 kmh NNW 8.4 mph13.5 kmh 30.07 in1018.3 mb 0.00 in0.0 mm 0.00 in0.0 mm 0.00 in0.0 mm
10:00 AM 72.4°F22.4°C 60.7°F15.9°C 67% 1.4 mph NNW2.3 kmh NNW 3.0 mph4.8 kmh 30.07 in1018.3 mb 0.00 in0.0 mm 0.00 in0.0 mm 0.00 in0.0 mm
09:55 AM 72.2°F22.3°C 60.6°F15.9°C 67% 1.6 mph ENE2.6 kmh ENE 4.9 mph7.9 kmh 30.07 in1018.3 mb 0.00 in0.0 mm 0.00 in0.0 mm 0.00 in0.0 mm
09:50 AM 72.1°F22.3°C 60.5°F15.8°C 67% 2.6 mph NNE4.2 kmh NNE 4.9 mph7.9 kmh 30.07 in1018.3 mb 0.00 in0.0 mm 0.00 in0.0 mm 0.00 in0.0 mm
09:45 AM 72.1°F22.3°C 61.2°F16.2°C 69% 3.3 mph NE5.3 kmh NE 4.5 mph7.2 kmh 30.07 in1018.3 mb 0.00 in0.0 mm 0.00 in0.0 mm 0.00 in0.0 mm
09:40 AM 71.7°F22.1°C 61.1°F16.2°C 69% 3.3 mph NNE5.3 kmh NNE 6.0 mph9.7 kmh 30.07 in1018.3 mb 0.00 in0.0 mm 0.00 in0.0 mm 0.00 in0.0 mm
09:35 AM 71.3°F21.8°C 61.2°F16.2°C 71% 2.4 mph E3.9 kmh E 7.9 mph12.7 kmh 30.07 in1018.3 mb 0.00 in0.0 mm 0.00 in0.0 mm 0.00 in0.0 mm
09:30 AM 70.7°F21.5°C 61.1°F16.2°C 72% 2.0 mph NE3.2 kmh NE 6.3 mph10.1 kmh 30.07 in1018.3 mb 0.00 in0.0 mm 0.00 in0.0 mm 0.00 in0.0 mm
09:25 AM 70.1°F21.2°C 60.9°F16.1°C 73% 2.5 mph NE4.0 kmh NE 4.5 mph7.2 kmh 30.07 in1018.3 mb 0.00 in0.0 mm 0.00 in0.0 mm 0.00 in0.0 mm
09:20 AM 69.6°F20.9°C 60.8°F16.0°C 74% 2.2 mph NNE3.5 kmh NNE 4.5 mph7.2 kmh 30.07 in1018.3 mb 0.00 in0.0 mm 0.00 in0.0 mm 0.00 in0.0 mm
09:15 AM 68.8°F20.4°C 60.2°F15.7°C 74% 1.4 mph NE2.3 kmh NE 4.9 mph7.9 kmh 30.07 in1018.3 mb 0.00 in0.0 mm 0.00 in0.0 mm 0.00 in0.0 mm
09:10 AM 68.6°F20.3°C 59.9°F15.5°C 74% 1.1 mph ENE1.8 kmh ENE 3.5 mph5.6 kmh 30.07 in1018.3 mb 0.00 in0.0 mm 0.00 in0.0 mm 0.00 in0.0 mm
09:05 AM 68.2°F20.1°C 60.0°F15.6°C 75% 1.4 mph NNE2.3 kmh NNE 2.4 mph3.9 kmh 30.07 in1018.3 mb 0.00 in0.0 mm 0.00 in0.0 mm 0.00 in0.0 mm
09:00 AM 68.2°F20.1°C 60.0°F15.6°C 75% 1.7 mph E2.7 kmh E 4.7 mph7.6 kmh 30.07 in1018.3 mb 0.00 in0.0 mm 0.00 in0.0 mm 0.00 in0.0 mm
08:55 AM 68.0°F20.0°C 60.2°F15.7°C 76% 1.8 mph NW2.9 kmh NW 3.0 mph4.8 kmh 30.07 in1018.3 mb 0.00 in0.0 mm 0.00 in0.0 mm 0.00 in0.0 mm
08:50 AM 67.8°F19.9°C 60.2°F15.7°C 77% 2.1 mph NE3.4 kmh NE 3.2 mph5.1 kmh 30.07 in1018.3 mb 0.00 in0.0 mm 0.00 in0.0 mm 0.00 in0.0 mm
08:45 AM 67.4°F19.7°C 60.1°F15.6°C 78% 2.4 mph E3.9 kmh E 4.5 mph7.2 kmh 30.06 in1017.9 mb 0.00 in0.0 mm 0.00 in0.0 mm 0.00 in0.0 mm
08:40 AM 66.8°F19.3°C 59.9°F15.5°C 78% 1.8 mph ENE2.9 kmh ENE 4.5 mph7.2 kmh 30.06 in1017.9 mb 0.00 in0.0 mm 0.00 in0.0 mm 0.00 in0.0 mm
08:35 AM 66.3°F19.1°C 59.7°F15.4°C 79% 2.0 mph E3.2 kmh E 4.7 mph7.6 kmh 30.06 in1017.9 mb 0.00 in0.0 mm 0.00 in0.0 mm 0.00 in0.0 mm
08:30 AM 65.9°F18.8°C 59.7°F15.4°C 80% 2.9 mph N4.7 kmh N 4.4 mph7.1 kmh 30.06 in1017.9 mb 0.00 in0.0 mm 0.00 in0.0 mm 0.00 in0.0 mm
08:25 AM 65.5°F18.6°C 59.6°F15.3°C 81% 3.4 mph NNE5.5 kmh NNE 4.9 mph7.9 kmh 30.07 in1018.3 mb 0.00 in0.0 mm 0.00 in0.0 mm 0.00 in0.0 mm
08:20 AM 65.1°F18.4°C 59.3°F15.2°C 81% 3.3 mph NE5.3 kmh NE 4.9 mph7.9 kmh 30.07 in1018.3 mb 0.00 in0.0 mm 0.00 in0.0 mm 0.00 in0.0 mm
08:15 AM 64.7°F18.2°C 59.1°F15.1°C 82% 3.1 mph NE5.0 kmh NE 4.7 mph7.6 kmh 30.07 in1018.3 mb 0.00 in0.0 mm 0.00 in0.0 mm 0.00 in0.0 mm
08:10 AM 64.4°F18.0°C 58.9°F14.9°C 82% 2.7 mph NE4.3 kmh NE 5.1 mph8.2 kmh 30.07 in1018.3 mb 0.00 in0.0 mm 0.00 in0.0 mm 0.00 in0.0 mm
08:05 AM 64.1°F17.8°C 58.9°F14.9°C 83% 2.0 mph E3.2 kmh E 5.3 mph8.5 kmh 30.06 in1017.9 mb 0.00 in0.0 mm 0.00 in0.0 mm 0.00 in0.0 mm
08:00 AM 63.9°F17.7°C 58.9°F14.9°C 84% 1.7 mph E2.7 kmh E 3.3 mph5.3 kmh 30.06 in1017.9 mb 0.00 in0.0 mm 0.00 in0.0 mm 0.00 in0.0 mm
07:55 AM 63.6°F17.6°C 58.7°F14.8°C 84% 2.1 mph NE3.4 kmh NE 3.0 mph4.8 kmh 30.06 in1017.9 mb 0.00 in0.0 mm 0.00 in0.0 mm 0.00 in0.0 mm
07:50 AM 63.3°F17.4°C 58.7°F14.8°C 85% 2.0 mph E3.2 kmh E 3.3 mph5.3 kmh 30.06 in1017.9 mb 0.00 in0.0 mm 0.00 in0.0 mm 0.00 in0.0 mm
07:45 AM 63.0°F17.2°C 58.5°F14.7°C 85% 1.7 mph ENE2.7 kmh ENE 3.3 mph5.3 kmh 30.06 in1017.9 mb 0.00 in0.0 mm 0.00 in0.0 mm 0.00 in0.0 mm
07:40 AM 62.4°F16.9°C 58.2°F14.6°C 86% 1.6 mph NNW2.6 kmh NNW 2.6 mph4.2 kmh 30.06 in1017.9 mb 0.00 in0.0 mm 0.00 in0.0 mm 0.00 in0.0 mm
07:35 AM 62.1°F16.7°C 57.8°F14.3°C 86% 1.6 mph NNE2.6 kmh NNE 4.0 mph6.4 kmh 30.06 in1017.9 mb 0.00 in0.0 mm 0.00 in0.0 mm 0.00 in0.0 mm
07:30 AM 61.7°F16.5°C 57.5°F14.2°C 86% 1.6 mph NE2.6 kmh NE 4.0 mph6.4 kmh 30.06 in1017.9 mb 0.00 in0.0 mm 0.00 in0.0 mm 0.00 in0.0 mm
07:25 AM 61.4°F16.3°C 57.2°F14.0°C 86% 1.2 mph NNE1.9 kmh NNE 3.7 mph6.0 kmh 30.06 in1017.9 mb 0.00 in0.0 mm 0.00 in0.0 mm 0.00 in0.0 mm
07:20 AM 61.1°F16.2°C 56.9°F13.8°C 86% 0.9 mph N1.4 kmh N 1.9 mph3.1 kmh 30.06 in1017.9 mb 0.00 in0.0 mm 0.00 in0.0 mm 0.00 in0.0 mm
07:15 AM 61.0°F16.1°C 56.7°F13.7°C 86% 0.7 mph NE1.1 kmh NE 3.2 mph5.1 kmh 30.06 in1017.9 mb 0.00 in0.0 mm 0.00 in0.0 mm 0.00 in0.0 mm
07:10 AM 60.8°F16.0°C 56.6°F13.7°C 86% 0.3 mph NE0.5 kmh NE 0.5 mph0.8 kmh 30.06 in1017.9 mb 0.00 in0.0 mm 0.00 in0.0 mm 0.00 in0.0 mm
07:05 AM 60.7°F15.9°C 56.5°F13.6°C 86% 0.2 mph ENE0.3 kmh ENE 1.9 mph3.1 kmh 30.06 in1017.9 mb 0.00 in0.0 mm 0.00 in0.0 mm 0.00 in0.0 mm
07:00 AM 60.6°F15.9°C 56.4°F13.6°C 86% 0.6 mph ENE1.0 kmh ENE 0.7 mph1.1 kmh 30.06 in1017.9 mb 0.00 in0.0 mm 0.00 in0.0 mm 0.00 in0.0 mm
06:55 AM 60.5°F15.8°C 56.3°F13.5°C 86% 0.6 mph NE1.0 kmh NE 3.5 mph5.6 kmh 30.06 in1017.9 mb 0.00 in0.0 mm 0.00 in0.0 mm 0.00 in0.0 mm
06:50 AM 60.5°F15.8°C 56.3°F13.5°C 86% 0.2 mph NE0.3 kmh NE 1.9 mph3.1 kmh 30.06 in1017.9 mb 0.00 in0.0 mm 0.00 in0.0 mm 0.00 in0.0 mm
06:45 AM 60.4°F15.8°C 56.2°F13.4°C 86% 0.2 mph NNE0.3 kmh NNE 1.8 mph2.9 kmh 30.06 in1017.9 mb 0.00 in0.0 mm 0.00 in0.0 mm 0.00 in0.0 mm
06:40 AM 60.3°F15.7°C 56.3°F13.5°C 87% 0.3 mph ENE0.5 kmh ENE 1.8 mph2.9 kmh 30.06 in1017.9 mb 0.00 in0.0 mm 0.00 in0.0 mm 0.00 in0.0 mm
06:35 AM 60.2°F15.7°C 56.3°F13.5°C 87% 0.5 mph ENE0.8 kmh ENE 0.5 mph0.8 kmh 30.06 in1017.9 mb 0.00 in0.0 mm 0.00 in0.0 mm 0.00 in0.0 mm
06:30 AM 60.1°F15.6°C 56.2°F13.4°C 87% 0.6 mph NE1.0 kmh NE 2.8 mph4.5 kmh 30.06 in1017.9 mb 0.00 in0.0 mm 0.00 in0.0 mm 0.00 in0.0 mm
06:25 AM 60.0°F15.6°C 56.1°F13.4°C 87% 0.5 mph NE0.8 kmh NE 2.4 mph3.9 kmh 30.06 in1017.9 mb 0.00 in0.0 mm 0.00 in0.0 mm 0.00 in0.0 mm
06:20 AM 59.9°F15.5°C 55.9°F13.3°C 86% 0.4 mph NE0.6 kmh NE 4.0 mph6.4 kmh 30.06 in1017.9 mb 0.00 in0.0 mm 0.00 in0.0 mm 0.00 in0.0 mm
06:15 AM 59.8°F15.4°C 55.6°F13.1°C 86% 0.2 mph NE0.3 kmh NE 2.1 mph3.4 kmh 30.06 in1017.9 mb 0.00 in0.0 mm 0.00 in0.0 mm 0.00 in0.0 mm
06:10 AM 59.6°F15.3°C 55.4°F13.0°C 86% 0.1 mph ENE0.2 kmh ENE 2.1 mph3.4 kmh 30.06 in1017.9 mb 0.00 in0.0 mm 0.00 in0.0 mm 0.00 in0.0 mm
06:05 AM 59.6°F15.3°C 55.4°F13.0°C 86% Calm Calm -- 30.06 in1017.9 mb 0.00 in0.0 mm 0.00 in0.0 mm 0.00 in0.0 mm
06:00 AM 59.6°F15.3°C 55.4°F13.0°C 86% 0.1 mph ENE0.2 kmh ENE 0.2 mph0.3 kmh 30.06 in1017.9 mb 0.00 in0.0 mm 0.00 in0.0 mm 0.00 in0.0 mm
05:55 AM 59.4°F15.2°C 55.2°F12.9°C 86% 0.2 mph E0.3 kmh E 0.2 mph0.3 kmh 30.06 in1017.9 mb 0.00 in0.0 mm 0.00 in0.0 mm 0.00 in0.0 mm
05:50 AM 59.4°F15.2°C 55.2°F12.9°C 86% 0.1 mph E0.2 kmh E 0.2 mph0.3 kmh 30.06 in1017.9 mb 0.00 in0.0 mm 0.00 in0.0 mm 0.00 in0.0 mm
05:45 AM 59.4°F15.2°C 55.2°F12.9°C 86% Calm Calm -- 30.05 in1017.6 mb 0.00 in0.0 mm 0.00 in0.0 mm 0.00 in0.0 mm
05:40 AM 59.4°F15.2°C 55.2°F12.9°C 86% Calm Calm -- 30.05 in1017.6 mb 0.00 in0.0 mm 0.00 in0.0 mm 0.00 in0.0 mm
05:35 AM 59.4°F15.2°C 55.2°F12.9°C 86% Calm Calm -- 30.05 in1017.6 mb 0.00 in0.0 mm 0.00 in0.0 mm 0.00 in0.0 mm
05:30 AM 59.4°F15.2°C 55.2°F12.9°C 86% Calm Calm 2.6 mph4.2 kmh 30.05 in1017.6 mb 0.00 in0.0 mm 0.00 in0.0 mm 0.00 in0.0 mm
05:25 AM 59.4°F15.2°C 55.0°F12.8°C 85% Calm Calm 2.6 mph4.2 kmh 30.05 in1017.6 mb 0.00 in0.0 mm 0.00 in0.0 mm 0.00 in0.0 mm
05:20 AM 59.4°F15.2°C 54.9°F12.7°C 85% Calm Calm -- 30.05 in1017.6 mb 0.00 in0.0 mm 0.00 in0.0 mm 0.00 in0.0 mm
05:15 AM 59.3°F15.2°C 54.8°F12.7°C 85% Calm Calm -- 30.05 in1017.6 mb 0.00 in0.0 mm 0.00 in0.0 mm 0.00 in0.0 mm
05:10 AM 59.3°F15.2°C 54.8°F12.7°C 85% Calm Calm -- 30.05 in1017.6 mb 0.00 in0.0 mm 0.00 in0.0 mm 0.00 in0.0 mm
05:05 AM 59.4°F15.2°C 54.9°F12.7°C 85% Calm Calm 1.8 mph2.9 kmh 30.05 in1017.6 mb 0.00 in0.0 mm 0.00 in0.0 mm 0.00 in0.0 mm
05:00 AM 59.4°F15.2°C 54.9°F12.7°C 85% Calm Calm 1.8 mph2.9 kmh 30.05 in1017.6 mb 0.00 in0.0 mm 0.00 in0.0 mm 0.00 in0.0 mm
04:55 AM 59.4°F15.2°C 54.9°F12.7°C 85% Calm Calm -- 30.05 in1017.6 mb 0.00 in0.0 mm 0.00 in0.0 mm 0.00 in0.0 mm
04:50 AM 59.5°F15.3°C 55.0°F12.8°C 85% Calm Calm -- 30.05 in1017.6 mb 0.00 in0.0 mm 0.00 in0.0 mm 0.00 in0.0 mm
04:45 AM 59.4°F15.2°C 54.9°F12.7°C 85% Calm Calm -- 30.05 in1017.6 mb 0.00 in0.0 mm 0.00 in0.0 mm 0.00 in0.0 mm
04:40 AM 59.4°F15.2°C 54.9°F12.7°C 85% 0.1 mph NE0.2 kmh NE 0.2 mph0.3 kmh 30.05 in1017.6 mb 0.00 in0.0 mm 0.00 in0.0 mm 0.00 in0.0 mm
04:35 AM 59.6°F15.3°C 55.1°F12.8°C 85% 0.3 mph ENE0.5 kmh ENE 0.4 mph0.6 kmh 30.05 in1017.6 mb 0.00 in0.0 mm 0.00 in0.0 mm 0.00 in0.0 mm
04:30 AM 59.6°F15.3°C 55.1°F12.8°C 85% 0.4 mph N0.6 kmh N 0.5 mph0.8 kmh 30.05 in1017.6 mb 0.00 in0.0 mm 0.00 in0.0 mm 0.00 in0.0 mm
04:25 AM 59.6°F15.3°C 55.1°F12.8°C 85% 0.5 mph NE0.8 kmh NE 0.5 mph0.8 kmh 30.05 in1017.6 mb 0.00 in0.0 mm 0.00 in0.0 mm 0.00 in0.0 mm
04:20 AM 59.6°F15.3°C 55.1°F12.8°C 85% 0.7 mph NE1.1 kmh NE 2.4 mph3.9 kmh 30.05 in1017.6 mb 0.00 in0.0 mm 0.00 in0.0 mm 0.00 in0.0 mm
04:15 AM 59.6°F15.3°C 55.1°F12.8°C 85% 0.6 mph NE1.0 kmh NE 1.8 mph2.9 kmh 30.05 in1017.6 mb 0.00 in0.0 mm 0.00 in0.0 mm 0.00 in0.0 mm
04:10 AM 59.6°F15.3°C 55.1°F12.8°C 85% 0.6 mph ENE1.0 kmh ENE 1.9 mph3.1 kmh 30.05 in1017.6 mb 0.00 in0.0 mm 0.00 in0.0 mm 0.00 in0.0 mm
04:05 AM 59.6°F15.3°C 55.1°F12.8°C 85% 0.6 mph NE1.0 kmh NE 0.7 mph1.1 kmh 30.04 in1017.3 mb 0.00 in0.0 mm 0.00 in0.0 mm 0.00 in0.0 mm
04:00 AM 59.8°F15.4°C 55.2°F12.9°C 85% 0.5 mph N0.8 kmh N 2.8 mph4.5 kmh 30.04 in1017.3 mb 0.00 in0.0 mm 0.00 in0.0 mm 0.00 in0.0 mm
03:55 AM 59.8°F15.4°C 55.2°F12.9°C 85% 0.3 mph NE0.5 kmh NE 1.9 mph3.1 kmh 30.04 in1017.3 mb 0.00 in0.0 mm 0.00 in0.0 mm 0.00 in0.0 mm
03:50 AM 59.8°F15.4°C 55.2°F12.9°C 85% 0.4 mph NE0.6 kmh NE 2.3 mph3.7 kmh 30.04 in1017.3 mb 0.00 in0.0 mm 0.00 in0.0 mm 0.00 in0.0 mm
03:45 AM 59.8°F15.4°C 55.2°F12.9°C 85% 0.9 mph NNE1.4 kmh NNE 1.2 mph1.9 kmh 30.06 in1017.9 mb 0.00 in0.0 mm 0.00 in0.0 mm 0.00 in0.0 mm
03:40 AM 59.8°F15.4°C 55.3°F12.9°C 85% 1.2 mph NE1.9 kmh NE 2.6 mph4.2 kmh 30.06 in1017.9 mb 0.00 in0.0 mm 0.00 in0.0 mm 0.00 in0.0 mm
03:35 AM 59.9°F15.5°C 55.4°F13.0°C 85% 0.8 mph NE1.3 kmh NE 4.7 mph7.6 kmh 30.06 in1017.9 mb 0.00 in0.0 mm 0.00 in0.0 mm 0.00 in0.0 mm
03:30 AM 59.9°F15.5°C 55.4°F13.0°C 85% 0.6 mph NE1.0 kmh NE 4.7 mph7.6 kmh 30.06 in1017.9 mb 0.00 in0.0 mm 0.00 in0.0 mm 0.00 in0.0 mm
03:25 AM 59.9°F15.5°C 55.4°F13.0°C 85% 0.2 mph NE0.3 kmh NE 3.5 mph5.6 kmh 30.05 in1017.6 mb 0.00 in0.0 mm 0.00 in0.0 mm 0.00 in0.0 mm
03:20 AM 59.9°F15.5°C 55.4°F13.0°C 85% 0.2 mph ENE0.3 kmh ENE 0.4 mph0.6 kmh 30.05 in1017.6 mb 0.00 in0.0 mm 0.00 in0.0 mm 0.00 in0.0 mm
03:15 AM 59.9°F15.5°C 55.4°F13.0°C 85% 0.3 mph NE0.5 kmh NE 0.4 mph0.6 kmh 30.05 in1017.6 mb 0.00 in0.0 mm 0.00 in0.0 mm 0.00 in0.0 mm
03:10 AM 59.9°F15.5°C 55.4°F13.0°C 85% 0.3 mph ENE0.5 kmh ENE 2.3 mph3.7 kmh 30.05 in1017.6 mb 0.00 in0.0 mm 0.00 in0.0 mm 0.00 in0.0 mm
03:05 AM 59.9°F15.5°C 55.4°F13.0°C 85% 0.4 mph NNE0.6 kmh NNE 1.8 mph2.9 kmh 30.06 in1017.9 mb 0.00 in0.0 mm 0.00 in0.0 mm 0.00 in0.0 mm
03:00 AM 59.9°F15.5°C 55.4°F13.0°C 85% 0.3 mph E0.5 kmh E 1.8 mph2.9 kmh 30.06 in1017.9 mb 0.00 in0.0 mm 0.00 in0.0 mm 0.00 in0.0 mm
02:55 AM 60.0°F15.6°C 55.4°F13.0°C 85% 0.1 mph ENE0.2 kmh ENE 1.9 mph3.1 kmh 30.06 in1017.9 mb 0.00 in0.0 mm 0.00 in0.0 mm 0.00 in0.0 mm
02:50 AM 60.1°F15.6°C 55.5°F13.1°C 85% Calm Calm -- 30.06 in1017.9 mb 0.00 in0.0 mm 0.00 in0.0 mm 0.00 in0.0 mm
02:45 AM 60.0°F15.6°C 55.3°F12.9°C 84% Calm Calm 0.2 mph0.3 kmh 30.06 in1017.9 mb 0.00 in0.0 mm 0.00 in0.0 mm 0.00 in0.0 mm
02:40 AM 60.1°F15.6°C 55.3°F12.9°C 84% 0.5 mph ENE0.8 kmh ENE 0.5 mph0.8 kmh 30.06 in1017.9 mb 0.00 in0.0 mm 0.00 in0.0 mm 0.00 in0.0 mm
02:35 AM 60.1°F15.6°C 55.3°F12.9°C 84% 0.8 mph E1.3 kmh E 2.4 mph3.9 kmh 30.06 in1017.9 mb 0.00 in0.0 mm 0.00 in0.0 mm 0.00 in0.0 mm
02:30 AM 60.1°F15.6°C 55.3°F12.9°C 84% 0.8 mph ENE1.3 kmh ENE 2.8 mph4.5 kmh 30.06 in1017.9 mb 0.00 in0.0 mm 0.00 in0.0 mm 0.00 in0.0 mm
02:25 AM 60.1°F15.6°C 55.3°F12.9°C 84% 0.8 mph ENE1.3 kmh ENE 2.3 mph3.7 kmh 30.06 in1017.9 mb 0.00 in0.0 mm 0.00 in0.0 mm 0.00 in0.0 mm
02:20 AM 60.1°F15.6°C 55.3°F12.9°C 84% 0.4 mph N0.6 kmh N 2.1 mph3.4 kmh 30.06 in1017.9 mb 0.00 in0.0 mm 0.00 in0.0 mm 0.00 in0.0 mm
02:15 AM 60.1°F15.6°C 55.3°F12.9°C 84% 0.2 mph NNW0.3 kmh NNW 1.8 mph2.9 kmh 30.06 in1017.9 mb 0.00 in0.0 mm 0.00 in0.0 mm 0.00 in0.0 mm
02:10 AM 60.3°F15.7°C 55.4°F13.0°C 84% 0.3 mph W0.5 kmh W 2.3 mph3.7 kmh 30.06 in1017.9 mb 0.00 in0.0 mm 0.00 in0.0 mm 0.00 in0.0 mm
02:05 AM 60.3°F15.7°C 55.5°F13.1°C 84% 0.3 mph NE0.5 kmh NE 2.1 mph3.4 kmh 30.06 in1017.9 mb 0.00 in0.0 mm 0.00 in0.0 mm 0.00 in0.0 mm
02:00 AM 60.5°F15.8°C 55.6°F13.1°C 84% 0.2 mph NE0.3 kmh NE 1.9 mph3.1 kmh 30.06 in1017.9 mb 0.00 in0.0 mm 0.00 in0.0 mm 0.00 in0.0 mm
01:55 AM 60.5°F15.8°C 55.6°F13.1°C 84% 0.3 mph NE0.5 kmh NE 0.4 mph0.6 kmh 30.06 in1017.9 mb 0.00 in0.0 mm 0.00 in0.0 mm 0.00 in0.0 mm
01:50 AM 60.6°F15.9°C 55.7°F13.2°C 84% 0.3 mph ENE0.5 kmh ENE 0.4 mph0.6 kmh 30.06 in1017.9 mb 0.00 in0.0 mm 0.00 in0.0 mm 0.00 in0.0 mm
01:45 AM 60.6°F15.9°C 55.8°F13.2°C 84% 0.4 mph NE0.6 kmh NE 2.1 mph3.4 kmh 30.06 in1017.9 mb 0.00 in0.0 mm 0.00 in0.0 mm 0.00 in0.0 mm
01:40 AM 60.8°F16.0°C 55.9°F13.3°C 84% 0.2 mph NE0.3 kmh NE 0.4 mph0.6 kmh 30.06 in1017.9 mb 0.00 in0.0 mm 0.00 in0.0 mm 0.00 in0.0 mm
01:35 AM 60.8°F16.0°C 56.0°F13.3°C 84% 0.1 mph 0.2 kmh 2.4 mph3.9 kmh 30.06 in1017.9 mb 0.00 in0.0 mm 0.00 in0.0 mm 0.00 in0.0 mm
01:30 AM 60.9°F16.1°C 56.0°F13.3°C 84% 0.1 mph ESE0.2 kmh ESE 0.2 mph0.3 kmh 30.06 in1017.9 mb 0.00 in0.0 mm 0.00 in0.0 mm 0.00 in0.0 mm
01:25 AM 61.0°F16.1°C 56.1°F13.4°C 84% 0.3 mph NNE0.5 kmh NNE 0.5 mph0.8 kmh 30.06 in1017.9 mb 0.00 in0.0 mm 0.00 in0.0 mm 0.00 in0.0 mm
01:20 AM 61.0°F16.1°C 56.1°F13.4°C 84% 0.5 mph NE0.8 kmh NE 0.5 mph0.8 kmh 30.06 in1017.9 mb 0.00 in0.0 mm 0.00 in0.0 mm 0.00 in0.0 mm
01:15 AM 61.0°F16.1°C 55.9°F13.3°C 83% 0.6 mph NE1.0 kmh NE 3.0 mph4.8 kmh 30.06 in1017.9 mb 0.00 in0.0 mm 0.00 in0.0 mm 0.00 in0.0 mm
01:10 AM 61.1°F16.2°C 55.9°F13.3°C 83% 0.9 mph NNE1.4 kmh NNE 1.8 mph2.9 kmh 30.06 in1017.9 mb 0.00 in0.0 mm 0.00 in0.0 mm 0.00 in0.0 mm
01:05 AM 61.2°F16.2°C 56.0°F13.3°C 83% 1.7 mph NE2.7 kmh NE 2.6 mph4.2 kmh 30.06 in1017.9 mb 0.00 in0.0 mm 0.00 in0.0 mm 0.00 in0.0 mm
01:00 AM 61.2°F16.2°C 56.0°F13.3°C 83% 1.8 mph NE2.9 kmh NE 2.3 mph3.7 kmh 30.06 in1017.9 mb 0.00 in0.0 mm 0.00 in0.0 mm 0.00 in0.0 mm
12:55 AM 61.2°F16.2°C 56.0°F13.3°C 83% 1.6 mph NE2.6 kmh NE 3.0 mph4.8 kmh 30.06 in1017.9 mb 0.00 in0.0 mm 0.00 in0.0 mm 0.00 in0.0 mm
12:50 AM 61.2°F16.2°C 56.0°F13.3°C 83% 1.3 mph NNE2.1 kmh NNE 2.6 mph4.2 kmh 30.06 in1017.9 mb 0.00 in0.0 mm 0.00 in0.0 mm 0.00 in0.0 mm
12:45 AM 61.2°F16.2°C 56.0°F13.3°C 83% 0.8 mph ENE1.3 kmh ENE 3.0 mph4.8 kmh 30.06 in1017.9 mb 0.00 in0.0 mm 0.00 in0.0 mm 0.00 in0.0 mm
12:40 AM 61.2°F16.2°C 56.0°F13.3°C 83% 0.6 mph NNE1.0 kmh NNE 1.8 mph2.9 kmh 30.06 in1017.9 mb 0.00 in0.0 mm 0.00 in0.0 mm 0.00 in0.0 mm
12:35 AM 61.3°F16.3°C 56.1°F13.4°C 83% 0.5 mph NE0.8 kmh NE 2.6 mph4.2 kmh 30.06 in1017.9 mb 0.00 in0.0 mm 0.00 in0.0 mm 0.00 in0.0 mm
12:30 AM 61.3°F16.3°C 56.1°F13.4°C 83% 0.6 mph NNW1.0 kmh NNW 1.8 mph2.9 kmh 30.06 in1017.9 mb 0.00 in0.0 mm 0.00 in0.0 mm 0.00 in0.0 mm
12:25 AM 61.3°F16.3°C 55.9°F13.3°C 82% 0.6 mph NE1.0 kmh NE 2.3 mph3.7 kmh 30.06 in1017.9 mb 0.00 in0.0 mm 0.00 in0.0 mm 0.00 in0.0 mm
12:20 AM 61.5°F16.4°C 55.9°F13.3°C 82% 0.3 mph NE0.5 kmh NE 2.1 mph3.4 kmh 30.06 in1017.9 mb 0.00 in0.0 mm 0.00 in0.0 mm 0.00 in0.0 mm
12:15 AM 61.5°F16.4°C 56.0°F13.3°C 82% 0.2 mph E0.3 kmh E 0.2 mph0.3 kmh 30.06 in1017.9 mb 0.00 in0.0 mm 0.00 in0.0 mm 0.00 in0.0 mm
12:10 AM 61.5°F16.4°C 56.0°F13.3°C 82% 0.2 mph NE0.3 kmh NE 0.2 mph0.3 kmh 30.06 in1017.9 mb 0.00 in0.0 mm 0.00 in0.0 mm 0.00 in0.0 mm
12:05 AM 61.5°F16.4°C 56.0°F13.3°C 82% 0.1 mph ENE0.2 kmh ENE 1.8 mph2.9 kmh 30.07 in1018.3 mb 0.00 in0.0 mm 0.00 in0.0 mm 0.00 in0.0 mm
12:00 AM 61.7°F16.5°C 56.1°F13.4°C 82% Calm Calm 1.9 mph3.1 kmh 30.07 in1018.3 mb 0.00 in0.0 mm 0.00 in0.0 mm 0.00 in0.0 mm